30 september 2022

Tijd Code Weer Temp. Zicht Plafond Wind METAR/SPECI
02:00
V
12 °C 15 mi 12.000 ft 330° 330° 5 kt METAR CYEG 300800Z 33005KT 15SM BKN120 BKN210 12/10 A3011 RMK AC6CI1 SLP207 DENSITY ALT 2400FT
01:00
V
14 °C 15 mi 12.000 ft 010° 010° 8 kt METAR CYEG 300700Z 01008KT 15SM BKN120 14/11 A3011 RMK AC7 VIRGA OHD SLP205 DENSITY ALT 2600FT
00:00
V
12 °C 15 mi 12.000 ft 350° 350° 8 kt METAR CYEG 300600Z 35008KT 15SM BKN120 BKN240 12/10 A3011 RMK AC7CI1 CI TR VIRGA OHD SLP209 DENSITY ALT 2400FT

29 september 2022

Tijd Code Weer Temp. Zicht Plafond Wind METAR/SPECI
23:00
V
12 °C 15 mi 12.000 ft 320° 320° 5 kt METAR CYEG 300500Z 32005KT 15SM BKN120 BKN240 12/10 A3011 RMK AC7CI1 CI TR VIRGA PTCHS SLP210 DENSITY ALT 2400FT
22:00
V
13 °C 15 mi 13.000 ft 340° 340° 6 kt METAR CYEG 300400Z 34006KT 15SM BKN130 BKN240 13/10 A3010 RMK AC6CI1 VIRGA PTCHS SLP207 DENSITY ALT 2500FT
21:00
V
14 °C 15 mi 13.000 ft 350° 350° 6 kt METAR CYEG 300300Z 35006KT 15SM BKN130 BKN240 14/10 A3008 RMK AC7CI1 CI TR SLP202 DENSITY ALT 2600FT
20:00
V
15 °C 12 mi 13.000 ft 350° 350° 9 kt METAR CYEG 300200Z 35009KT 12SM BKN130 BKN180 BKN240 15/10 A3007 RMK AC6AC1CI1 CI TR ACC ASOCTD SH DIST S SLP197 DENSITY ALT 2800FT
19:00
V
15 °C 12 mi 14.000 ft 330° 330° 10 kt METAR CYEG 300100Z 33010KT 12SM BKN140 BKN180 BKN240 15/10 A3005 RMK AC5AC2CI1 CI TR ACC ASOCTD SH DIST SW SLP189 DENSITY ALT 2900FT
18:00
V
17 °C 12 mi 14.000 ft 340° 340° 10 kt METAR CYEG 300000Z 34010KT 12SM BKN140 BKN180 BKN240 17/10 A3003 RMK AC5AS2CI1 CI TR ACC ASOCTD SLP185 DENSITY ALT 3000FT
17:00
V
17 °C 12 mi 14.000 ft 340° 340° 10 kt METAR CYEG 292300Z 34010KT 12SM BKN140 BKN180 BKN240 17/10 A3002 RMK AC5AS2CI1 CI TR ACC ASOCTD SH DIST NW-NE SLP184 DENSITY ALT 3000FT
16:00
V
17 °C 12 mi 14.000 ft 320° 320° 12 kt METAR CYEG 292200Z 32012KT 12SM VCSH BKN140 BKN180 BKN220 17/09 A3001 RMK AC5AS2CI1 CI TR ACC ASOCTD SH W-N-E SLP177 DENSITY ALT 3100FT
15:54
V
17 °C 12 mi 14.000 ft 320° 320° 12 kt METAR CYEG 292154Z 32012KT 12SM VCSH BKN140 BKN180 BKN220 17/09 A3001 RMK AC5AS2CI1 CI TR ACC ASOCTD SH W-N-E SLP177 DENSITY ALT 3100FT
15:37
V
17 °C 12 mi 9.200 ft 300° 300° 12 kt METAR CYEG 292137Z 30012KT 12SM -SHRA BKN092 OVC180 17/09 A3001 RMK AC6AS2 ACC ASOCTD SLP177 DENSITY ALT 3100FT
15:00
V
17 °C 12 mi 10.000 ft 330° 330° 8 kt METAR CYEG 292100Z 33008KT 12SM BKN100 OVC220 17/09 A3001 RMK AC7CI1 ACC ASOCTD VIRGA OHD SLP176 DENSITY ALT 3200FT
14:00
V
17 °C 12 mi 12.000 ft 340° 340° 5 kt METAR CYEG 292000Z 34005KT 12SM BKN120 BKN180 OVC240 17/09 A3001 RMK AC5AS2CI1 ACC ASOCTD PCPN/VIRGA DIST S-W SLP176 DENSITY ALT 3200FT
13:00
V
16 °C 12 mi 12.000 ft 340° 340° 3 kt METAR CYEG 291900Z 34003KT 270V350 12SM BKN120 BKN180 OVC250 16/09 A3001 RMK AC6AC1CI1 ACC ASOCTD VIRGA OHD SLP175 DENSITY ALT 3000FT
12:00
V
15 °C 12 mi 12.000 ft 300° 300° 3 kt METAR CYEG 291800Z 30003KT 12SM BKN120 BKN180 BKN250 15/09 A3001 RMK AC5AC1CI1 ACC ASOCTD SH DIST SW VIRGA S + NW SLP174 DENSITY ALT 2800FT
11:00
V
14 °C 12 mi 10.000 ft Var 000° 0 kt METAR CYEG 291700Z 00000KT 12SM BKN100 BKN180 OVC250 14/09 A2999 RMK AC6AC1CI2 AC TR ACC ASOCTD VIRGA E-S-W SLP170 DENSITY ALT 2800FT
10:00
V
12 °C 12 mi 13.000 ft 010° 010° 2 kt METAR CYEG 291600Z 01002KT 12SM BKN130 BKN180 OVC250 12/09 A2997 RMK AC5AC1CI3 AC TR ACC ASOCTD PRESRR SLP160 DENSITY ALT 2600FT
09:00
V
9 °C 15 mi 14.000 ft 360° 360° 2 kt METAR CYEG 291500Z 36002KT 15SM BKN140 BKN180 BKN250 09/08 A2995 RMK AC5AC1CI2 AC TR ACC ASOCTD SLP151
08:00
V
8 °C 15 mi 13.000 ft Var Var 2 kt METAR CYEG 291400Z VRB02KT 15SM BKN130 BKN180 BKN250 08/06 A2994 RMK AC5AC1CI2 AC TR VIRGA DIST E SLP150
07:00
V
8 °C 20 mi 14.000 ft Var Var 3 kt METAR CYEG 291300Z VRB03KT 20SM BKN140 BKN160 BKN240 08/06 A2992 RMK AC5AC2CI1 CI TR SLP140
06:00
V
7 °C 20 mi 16.000 ft 040° 040° 6 kt METAR CYEG 291200Z 04006KT 030V100 20SM BKN160 BKN240 07/05 A2992 RMK AC5CI2 SLP138
05:00
V
4 °C 20 mi 25.000 ft 180° 180° 4 kt METAR CYEG 291100Z 18004KT 20SM SCT180 BKN250 04/03 A2993 RMK AC4CI2 SLP141
04:00
V
5 °C 20 mi - 200° 200° 2 kt METAR CYEG 291000Z 20002KT 20SM SCT240 05/03 A2993 RMK CI4 SLP141
03:00
V
4 °C 20 mi 24.000 ft 210° 210° 2 kt METAR CYEG 290900Z 21002KT 20SM BKN240 04/03 A2992 RMK CI5 SLP140
02:00
V
5 °C 20 mi 24.000 ft Var Var 2 kt METAR CYEG 290800Z VRB02KT 20SM BKN240 05/03 A2992 RMK CI5 SLP140
01:00
V
8 °C 20 mi 24.000 ft Var 000° 0 kt METAR CYEG 290700Z 00000KT 20SM BKN240 08/05 A2993 RMK CI7 SLP141
00:00
V
9 °C 20 mi 24.000 ft Var Var 2 kt METAR CYEG 290600Z VRB02KT 20SM BKN240 09/05 A2993 RMK CI7 SLP142

28 september 2022

Tijd Code Weer Temp. Zicht Plafond Wind METAR/SPECI
23:00
V
10 °C 20 mi 24.000 ft 040° 040° 3 kt METAR CYEG 290500Z 04003KT 020V090 20SM BKN240 10/06 A2992 RMK CI7 SLP141 DENSITY ALT 2400FT
22:00
V
13 °C 20 mi 24.000 ft Var Var 2 kt METAR CYEG 290400Z VRB02KT 20SM BKN240 13/06 A2992 RMK CI6 SLP143 DENSITY ALT 2700FT
21:00
V
19 °C 20 mi 24.000 ft 080° 080° 8 kt METAR CYEG 290300Z 08008KT 20SM BKN240 19/07 A2992 RMK CI6 SLP142 DENSITY ALT 3400FT
20:00
V
17 °C 20 mi 25.000 ft 090° 090° 5 kt METAR CYEG 290200Z 09005KT 20SM BKN250 17/06 A2991 RMK CI6 SLP144 DENSITY ALT 3200FT
19:00
V
21 °C 20 mi 25.000 ft 080° 080° 6 kt METAR CYEG 290100Z 08006KT 20SM BKN250 21/06 A2990 RMK CI7 SLP139 DENSITY ALT 3700FT
18:00
V
25 °C 20 mi - 070° 070° 5 kt METAR CYEG 290000Z 07005KT 20SM SCT250 25/07 A2990 RMK CI4 SLP132 DENSITY ALT 4100FT
17:00
V
27 °C 20 mi - 050° 050° 4 kt METAR CYEG 282300Z 05004KT 010V090 20SM SCT250 27/06 A2989 RMK CI3 SLP127 DENSITY ALT 4400FT
16:00
V
27 °C 20 mi 25.000 ft 010° 010° 5 kt METAR CYEG 282200Z 01005KT 340V070 20SM BKN250 27/06 A2989 RMK CI6 SLP126 DENSITY ALT 4400FT
15:00
V
25 °C 20 mi - 020° 020° 5 kt METAR CYEG 282100Z 02005KT 20SM SCT250 25/07 A2990 RMK CI4 SLP128 DENSITY ALT 4200FT
14:00
V
24 °C 20 mi - 300° 300° 3 kt METAR CYEG 282000Z 30003KT 250V030 20SM FEW250 24/08 A2991 RMK CI1 CI TR SLP133 DENSITY ALT 4100FT
13:00
V
23 °C 20 mi - 330° 330° 5 kt METAR CYEG 281900Z 33005KT 310V010 20SM FEW250 23/07 A2991 RMK CI1 SLP135 DENSITY ALT 3800FT
12:00
V
20 °C 20 mi 25.000 ft 310° 310° 4 kt METAR CYEG 281800Z 31004KT 260V340 20SM BKN250 20/07 A2991 RMK CI5 SLP138 DENSITY ALT 3600FT
11:00
V
18 °C 20 mi - 300° 300° 8 kt METAR CYEG 281700Z 30008KT 20SM FEW250 18/05 A2992 RMK CI1 CI TR SLP139 DENSITY ALT 3400FT
10:00
V
14 °C 20 mi - 240° 240° 3 kt METAR CYEG 281600Z 24003KT 230V300 20SM FEW250 14/06 A2991 RMK CI1 CI TR SLP141 DENSITY ALT 2800FT
09:00
V
8 °C 20 mi - 210° 210° 3 kt METAR CYEG 281500Z 21003KT 20SM FEW250 08/07 A2991 RMK CI1 CI TR SLP144
08:00
V
5 °C 20 mi - 160° 160° 4 kt METAR CYEG 281400Z 16004KT 20SM SKC 05/04 A2990 RMK SLP141
07:00
V
3 °C 20 mi - 210° 210° 5 kt METAR CYEG 281300Z 21005KT 20SM SKC 03/03 A2989 RMK SLP133
06:00
V
4 °C 20 mi - 210° 210° 5 kt METAR CYEG 281200Z 21005KT 20SM FEW250 04/03 A2989 RMK CI1 CI TR SLP129
05:00
V
6 °C 20 mi - 190° 190° 4 kt METAR CYEG 281100Z 19004KT 20SM SKC 06/05 A2989 RMK SLP127
04:00
V
7 °C 20 mi - Var Var 2 kt METAR CYEG 281000Z VRB02KT 20SM SKC 07/05 A2989 RMK SLP126
03:00
V
9 °C 20 mi - 170° 170° 4 kt METAR CYEG 280900Z 17004KT 20SM SKC 09/06 A2988 RMK SLP125
Oudere gegevens

Met cookies volgen wij en derde partijen jouw internetgedrag binnen onze site. Als je verdergaat gaan we ervan uit dat je dit goedvindt. Meer info